sensor_id;sensor_type;location;lat;lon;timestamp;P1;durP1;ratioP1;P2;durP2;ratioP2
66353;SDS011;53150;48.296;16.452;2023-02-28T00:01:25;12.23;;;6.00;;
66353;SDS011;53150;48.296;16.452;2023-02-28T00:03:51;13.88;;;6.32;;
66353;SDS011;53150;48.296;16.452;2023-02-28T00:06:17;8.88;;;5.60;;
66353;SDS011;53150;48.296;16.452;2023-02-28T00:08:43;11.15;;;6.40;;
66353;SDS011;53150;48.296;16.452;2023-02-28T00:11:11;10.93;;;6.20;;
66353;SDS011;53150;48.296;16.452;2023-02-28T00:13:38;11.48;;;6.50;;
66353;SDS011;53150;48.296;16.452;2023-02-28T00:16:05;16.48;;;7.57;;
66353;SDS011;53150;48.296;16.452;2023-02-28T00:18:32;12.50;;;6.68;;
66353;SDS011;53150;48.296;16.452;2023-02-28T00:20:58;15.32;;;6.95;;
66353;SDS011;53150;48.296;16.452;2023-02-28T00:23:25;12.95;;;6.95;;
66353;SDS011;53150;48.296;16.452;2023-02-28T00:25:51;16.15;;;6.82;;
66353;SDS011;53150;48.296;16.452;2023-02-28T00:28:17;14.38;;;7.60;;
66353;SDS011;53150;48.296;16.452;2023-02-28T00:30:43;13.10;;;6.60;;
66353;SDS011;53150;48.296;16.452;2023-02-28T00:33:09;13.00;;;6.32;;
66353;SDS011;53150;48.296;16.452;2023-02-28T00:35:35;13.40;;;7.32;;
66353;SDS011;53150;48.296;16.452;2023-02-28T00:38:01;13.52;;;7.07;;
66353;SDS011;53150;48.296;16.452;2023-02-28T00:40:27;14.48;;;6.88;;
66353;SDS011;53150;48.296;16.452;2023-02-28T00:42:53;13.35;;;6.82;;
66353;SDS011;53150;48.296;16.452;2023-02-28T00:45:19;12.85;;;6.30;;
66353;SDS011;53150;48.296;16.452;2023-02-28T00:47:45;14.02;;;7.13;;
66353;SDS011;53150;48.296;16.452;2023-02-28T00:50:14;14.70;;;6.90;;
66353;SDS011;53150;48.296;16.452;2023-02-28T00:52:40;13.18;;;7.03;;
66353;SDS011;53150;48.296;16.452;2023-02-28T00:55:06;13.38;;;6.50;;
66353;SDS011;53150;48.296;16.452;2023-02-28T00:57:33;18.42;;;8.15;;
66353;SDS011;53150;48.296;16.452;2023-02-28T00:59:59;15.88;;;7.88;;
66353;SDS011;53150;48.296;16.452;2023-02-28T01:02:25;14.00;;;7.10;;
66353;SDS011;53150;48.296;16.452;2023-02-28T01:04:51;12.75;;;7.03;;
66353;SDS011;53150;48.296;16.452;2023-02-28T01:07:17;15.82;;;7.60;;
66353;SDS011;53150;48.296;16.452;2023-02-28T01:09:43;18.23;;;7.03;;
66353;SDS011;53150;48.296;16.452;2023-02-28T01:12:09;14.80;;;7.45;;
66353;SDS011;53150;48.296;16.452;2023-02-28T01:14:35;12.88;;;6.57;;
66353;SDS011;53150;48.296;16.452;2023-02-28T01:17:01;16.75;;;8.05;;
66353;SDS011;53150;48.296;16.452;2023-02-28T01:19:27;13.45;;;6.85;;
66353;SDS011;53150;48.296;16.452;2023-02-28T01:21:53;13.52;;;7.00;;
66353;SDS011;53150;48.296;16.452;2023-02-28T01:24:19;13.55;;;6.97;;
66353;SDS011;53150;48.296;16.452;2023-02-28T01:26:45;11.88;;;6.95;;
66353;SDS011;53150;48.296;16.452;2023-02-28T01:29:11;15.70;;;7.53;;
66353;SDS011;53150;48.296;16.452;2023-02-28T01:31:37;14.82;;;7.15;;
66353;SDS011;53150;48.296;16.452;2023-02-28T01:34:03;13.18;;;7.35;;
66353;SDS011;53150;48.296;16.452;2023-02-28T01:36:29;17.95;;;6.88;;
66353;SDS011;53150;48.296;16.452;2023-02-28T01:38:56;14.27;;;6.95;;
66353;SDS011;53150;48.296;16.452;2023-02-28T01:41:23;14.75;;;7.40;;
66353;SDS011;53150;48.296;16.452;2023-02-28T01:44:01;17.60;;;7.63;;
66353;SDS011;53150;48.296;16.452;2023-02-28T01:46:28;14.68;;;7.28;;
66353;SDS011;53150;48.296;16.452;2023-02-28T01:48:58;14.70;;;7.60;;
66353;SDS011;53150;48.296;16.452;2023-02-28T01:51:27;13.88;;;6.55;;
66353;SDS011;53150;48.296;16.452;2023-02-28T01:53:59;15.27;;;6.75;;
66353;SDS011;53150;48.296;16.452;2023-02-28T01:56:29;14.57;;;6.40;;
66353;SDS011;53150;48.296;16.452;2023-02-28T01:58:56;12.88;;;7.38;;
66353;SDS011;53150;48.296;16.452;2023-02-28T02:01:22;13.95;;;7.20;;
66353;SDS011;53150;48.296;16.452;2023-02-28T02:03:49;14.25;;;7.32;;
66353;SDS011;53150;48.296;16.452;2023-02-28T02:06:21;13.23;;;7.30;;
66353;SDS011;53150;48.296;16.452;2023-02-28T02:08:47;14.55;;;7.43;;
66353;SDS011;53150;48.296;16.452;2023-02-28T02:11:13;17.02;;;8.23;;
66353;SDS011;53150;48.296;16.452;2023-02-28T02:14:02;12.50;;;7.10;;
66353;SDS011;53150;48.296;16.452;2023-02-28T02:26:50;16.48;;;7.15;;
66353;SDS011;53150;48.296;16.452;2023-02-28T02:37:24;13.95;;;7.68;;
66353;SDS011;53150;48.296;16.452;2023-02-28T02:42:54;14.50;;;7.78;;
66353;SDS011;53150;48.296;16.452;2023-02-28T02:45:14;14.20;;;7.07;;
66353;SDS011;53150;48.296;16.452;2023-02-28T02:47:41;16.58;;;7.95;;
66353;SDS011;53150;48.296;16.452;2023-02-28T02:50:08;15.65;;;7.32;;
66353;SDS011;53150;48.296;16.452;2023-02-28T02:52:39;17.25;;;8.10;;
66353;SDS011;53150;48.296;16.452;2023-02-28T02:55:06;14.25;;;7.68;;
66353;SDS011;53150;48.296;16.452;2023-02-28T02:57:38;12.90;;;7.18;;
66353;SDS011;53150;48.296;16.452;2023-02-28T03:00:06;13.93;;;7.03;;
66353;SDS011;53150;48.296;16.452;2023-02-28T03:02:34;15.45;;;7.07;;
66353;SDS011;53150;48.296;16.452;2023-02-28T03:05:03;14.40;;;7.63;;
66353;SDS011;53150;48.296;16.452;2023-02-28T03:07:30;14.15;;;7.68;;
66353;SDS011;53150;48.296;16.452;2023-02-28T03:09:56;19.90;;;8.85;;
66353;SDS011;53150;48.296;16.452;2023-02-28T03:12:33;18.10;;;7.97;;
66353;SDS011;53150;48.296;16.452;2023-02-28T03:18:15;16.10;;;7.50;;
66353;SDS011;53150;48.296;16.452;2023-02-28T03:25:44;15.00;;;8.18;;
66353;SDS011;53150;48.296;16.452;2023-02-28T03:28:31;12.10;;;6.88;;
66353;SDS011;53150;48.296;16.452;2023-02-28T03:31:03;16.90;;;7.95;;
66353;SDS011;53150;48.296;16.452;2023-02-28T03:36:19;16.83;;;7.93;;
66353;SDS011;53150;48.296;16.452;2023-02-28T03:41:23;16.25;;;7.55;;
66353;SDS011;53150;48.296;16.452;2023-02-28T03:43:51;14.85;;;7.90;;
66353;SDS011;53150;48.296;16.452;2023-02-28T03:46:21;11.50;;;6.53;;
66353;SDS011;53150;48.296;16.452;2023-02-28T03:48:55;14.90;;;6.93;;
66353;SDS011;53150;48.296;16.452;2023-02-28T03:51:23;17.02;;;7.45;;
66353;SDS011;53150;48.296;16.452;2023-02-28T03:53:53;15.45;;;7.35;;
66353;SDS011;53150;48.296;16.452;2023-02-28T03:56:22;16.75;;;8.20;;
66353;SDS011;53150;48.296;16.452;2023-02-28T04:01:50;16.75;;;8.25;;
66353;SDS011;53150;48.296;16.452;2023-02-28T04:04:16;15.60;;;7.78;;
66353;SDS011;53150;48.296;16.452;2023-02-28T04:06:43;12.65;;;7.43;;
66353;SDS011;53150;48.296;16.452;2023-02-28T04:09:10;16.85;;;7.63;;
66353;SDS011;53150;48.296;16.452;2023-02-28T04:11:37;16.77;;;8.00;;
66353;SDS011;53150;48.296;16.452;2023-02-28T04:14:04;15.75;;;8.10;;
66353;SDS011;53150;48.296;16.452;2023-02-28T04:16:31;12.93;;;7.68;;
66353;SDS011;53150;48.296;16.452;2023-02-28T04:18:57;14.70;;;7.38;;
66353;SDS011;53150;48.296;16.452;2023-02-28T04:24:17;21.58;;;8.05;;
66353;SDS011;53150;48.296;16.452;2023-02-28T04:26:45;16.88;;;7.72;;
66353;SDS011;53150;48.296;16.452;2023-02-28T04:29:12;16.38;;;9.15;;
66353;SDS011;53150;48.296;16.452;2023-02-28T04:31:39;16.60;;;8.13;;
66353;SDS011;53150;48.296;16.452;2023-02-28T04:34:05;19.30;;;8.30;;
66353;SDS011;53150;48.296;16.452;2023-02-28T04:36:31;15.98;;;7.75;;
66353;SDS011;53150;48.296;16.452;2023-02-28T04:38:57;15.52;;;7.65;;
66353;SDS011;53150;48.296;16.452;2023-02-28T04:41:23;18.88;;;8.77;;
66353;SDS011;53150;48.296;16.452;2023-02-28T04:43:52;19.80;;;8.55;;
66353;SDS011;53150;48.296;16.452;2023-02-28T04:46:18;15.20;;;8.27;;
66353;SDS011;53150;48.296;16.452;2023-02-28T04:48:45;15.38;;;7.95;;
66353;SDS011;53150;48.296;16.452;2023-02-28T04:51:12;15.48;;;7.57;;
66353;SDS011;53150;48.296;16.452;2023-02-28T04:53:40;15.10;;;8.13;;
66353;SDS011;53150;48.296;16.452;2023-02-28T04:56:06;17.45;;;8.18;;
66353;SDS011;53150;48.296;16.452;2023-02-28T04:58:33;16.48;;;9.13;;
66353;SDS011;53150;48.296;16.452;2023-02-28T05:01:02;15.32;;;8.77;;
66353;SDS011;53150;48.296;16.452;2023-02-28T05:03:29;20.23;;;9.77;;
66353;SDS011;53150;48.296;16.452;2023-02-28T05:05:55;16.70;;;7.97;;
66353;SDS011;53150;48.296;16.452;2023-02-28T05:08:21;13.68;;;8.23;;
66353;SDS011;53150;48.296;16.452;2023-02-28T05:10:47;21.05;;;8.07;;
66353;SDS011;53150;48.296;16.452;2023-02-28T05:13:13;16.55;;;7.72;;
66353;SDS011;53150;48.296;16.452;2023-02-28T05:15:39;17.63;;;8.43;;
66353;SDS011;53150;48.296;16.452;2023-02-28T05:18:05;14.50;;;7.47;;
66353;SDS011;53150;48.296;16.452;2023-02-28T05:20:31;17.75;;;7.90;;
66353;SDS011;53150;48.296;16.452;2023-02-28T05:22:58;16.20;;;7.95;;
66353;SDS011;53150;48.296;16.452;2023-02-28T05:25:25;16.23;;;8.32;;
66353;SDS011;53150;48.296;16.452;2023-02-28T05:27:51;17.63;;;8.32;;
66353;SDS011;53150;48.296;16.452;2023-02-28T05:30:16;20.20;;;8.75;;
66353;SDS011;53150;48.296;16.452;2023-02-28T05:32:43;17.10;;;8.02;;
66353;SDS011;53150;48.296;16.452;2023-02-28T05:35:12;19.20;;;8.98;;
66353;SDS011;53150;48.296;16.452;2023-02-28T05:37:38;20.38;;;8.85;;
66353;SDS011;53150;48.296;16.452;2023-02-28T05:40:05;17.27;;;7.05;;
66353;SDS011;53150;48.296;16.452;2023-02-28T05:42:32;15.15;;;8.27;;
66353;SDS011;53150;48.296;16.452;2023-02-28T05:44:58;24.23;;;11.15;;
66353;SDS011;53150;48.296;16.452;2023-02-28T05:47:24;21.80;;;10.98;;
66353;SDS011;53150;48.296;16.452;2023-02-28T05:49:50;17.15;;;8.60;;
66353;SDS011;53150;48.296;16.452;2023-02-28T05:52:16;17.25;;;9.00;;
66353;SDS011;53150;48.296;16.452;2023-02-28T05:54:42;16.42;;;8.48;;
66353;SDS011;53150;48.296;16.452;2023-02-28T05:57:08;20.83;;;10.57;;
66353;SDS011;53150;48.296;16.452;2023-02-28T05:59:35;26.40;;;13.95;;
66353;SDS011;53150;48.296;16.452;2023-02-28T06:02:04;29.67;;;15.70;;
66353;SDS011;53150;48.296;16.452;2023-02-28T06:04:31;32.97;;;15.45;;
66353;SDS011;53150;48.296;16.452;2023-02-28T06:06:57;25.75;;;12.50;;
66353;SDS011;53150;48.296;16.452;2023-02-28T06:09:23;22.85;;;10.98;;
66353;SDS011;53150;48.296;16.452;2023-02-28T06:17:19;16.88;;;8.93;;
66353;SDS011;53150;48.296;16.452;2023-02-28T06:19:45;22.73;;;9.50;;
66353;SDS011;53150;48.296;16.452;2023-02-28T06:22:11;21.25;;;9.77;;
66353;SDS011;53150;48.296;16.452;2023-02-28T06:24:37;16.95;;;8.80;;
66353;SDS011;53150;48.296;16.452;2023-02-28T06:27:03;17.65;;;9.35;;
66353;SDS011;53150;48.296;16.452;2023-02-28T06:29:30;15.40;;;8.48;;
66353;SDS011;53150;48.296;16.452;2023-02-28T06:31:57;17.13;;;9.50;;
66353;SDS011;53150;48.296;16.452;2023-02-28T06:34:23;19.30;;;9.93;;
66353;SDS011;53150;48.296;16.452;2023-02-28T06:36:50;23.23;;;11.02;;
66353;SDS011;53150;48.296;16.452;2023-02-28T06:39:16;22.08;;;10.85;;
66353;SDS011;53150;48.296;16.452;2023-02-28T06:41:42;21.90;;;11.00;;
66353;SDS011;53150;48.296;16.452;2023-02-28T06:44:14;21.92;;;10.55;;
66353;SDS011;53150;48.296;16.452;2023-02-28T06:46:40;16.95;;;9.13;;
66353;SDS011;53150;48.296;16.452;2023-02-28T06:49:07;16.60;;;9.07;;
66353;SDS011;53150;48.296;16.452;2023-02-28T06:51:37;16.80;;;8.73;;
66353;SDS011;53150;48.296;16.452;2023-02-28T06:54:04;17.90;;;8.55;;
66353;SDS011;53150;48.296;16.452;2023-02-28T06:56:30;16.17;;;8.57;;
66353;SDS011;53150;48.296;16.452;2023-02-28T06:58:56;18.15;;;8.60;;
66353;SDS011;53150;48.296;16.452;2023-02-28T07:01:22;14.98;;;8.55;;
66353;SDS011;53150;48.296;16.452;2023-02-28T07:03:49;18.77;;;8.73;;
66353;SDS011;53150;48.296;16.452;2023-02-28T07:06:17;15.52;;;7.93;;
66353;SDS011;53150;48.296;16.452;2023-02-28T07:08:43;16.58;;;7.85;;
66353;SDS011;53150;48.296;16.452;2023-02-28T07:11:10;19.02;;;9.82;;
66353;SDS011;53150;48.296;16.452;2023-02-28T07:13:36;24.30;;;9.27;;
66353;SDS011;53150;48.296;16.452;2023-02-28T07:16:06;18.13;;;8.93;;
66353;SDS011;53150;48.296;16.452;2023-02-28T07:18:35;17.75;;;9.05;;
66353;SDS011;53150;48.296;16.452;2023-02-28T07:21:03;18.02;;;8.20;;
66353;SDS011;53150;48.296;16.452;2023-02-28T07:23:29;16.75;;;7.88;;
66353;SDS011;53150;48.296;16.452;2023-02-28T07:25:55;16.70;;;8.40;;
66353;SDS011;53150;48.296;16.452;2023-02-28T07:28:21;18.67;;;9.57;;
66353;SDS011;53150;48.296;16.452;2023-02-28T07:30:47;17.48;;;8.45;;
66353;SDS011;53150;48.296;16.452;2023-02-28T07:33:13;19.63;;;8.93;;
66353;SDS011;53150;48.296;16.452;2023-02-28T07:35:39;17.58;;;8.57;;
66353;SDS011;53150;48.296;16.452;2023-02-28T07:38:05;18.92;;;9.00;;
66353;SDS011;53150;48.296;16.452;2023-02-28T07:40:32;20.30;;;9.00;;
66353;SDS011;53150;48.296;16.452;2023-02-28T07:43:02;17.35;;;8.82;;
66353;SDS011;53150;48.296;16.452;2023-02-28T07:45:28;16.83;;;8.40;;
66353;SDS011;53150;48.296;16.452;2023-02-28T07:47:54;16.48;;;8.82;;
66353;SDS011;53150;48.296;16.452;2023-02-28T07:50:21;17.58;;;8.65;;
66353;SDS011;53150;48.296;16.452;2023-02-28T07:52:47;16.55;;;8.85;;
66353;SDS011;53150;48.296;16.452;2023-02-28T07:55:13;17.80;;;8.88;;
66353;SDS011;53150;48.296;16.452;2023-02-28T07:57:41;15.07;;;8.77;;
66353;SDS011;53150;48.296;16.452;2023-02-28T08:00:08;19.08;;;9.32;;
66353;SDS011;53150;48.296;16.452;2023-02-28T08:02:35;16.48;;;7.65;;
66353;SDS011;53150;48.296;16.452;2023-02-28T08:05:01;17.10;;;8.18;;
66353;SDS011;53150;48.296;16.452;2023-02-28T08:07:27;17.52;;;8.45;;
66353;SDS011;53150;48.296;16.452;2023-02-28T08:09:53;16.50;;;8.90;;
66353;SDS011;53150;48.296;16.452;2023-02-28T08:12:19;17.88;;;8.90;;
66353;SDS011;53150;48.296;16.452;2023-02-28T08:14:45;14.85;;;9.50;;
66353;SDS011;53150;48.296;16.452;2023-02-28T08:17:11;16.58;;;10.15;;
66353;SDS011;53150;48.296;16.452;2023-02-28T08:19:37;15.80;;;9.15;;
66353;SDS011;53150;48.296;16.452;2023-02-28T08:22:03;18.77;;;10.10;;
66353;SDS011;53150;48.296;16.452;2023-02-28T08:24:29;18.17;;;9.20;;
66353;SDS011;53150;48.296;16.452;2023-02-28T08:26:55;18.42;;;9.60;;
66353;SDS011;53150;48.296;16.452;2023-02-28T08:29:21;19.00;;;10.25;;
66353;SDS011;53150;48.296;16.452;2023-02-28T08:31:47;18.67;;;10.43;;
66353;SDS011;53150;48.296;16.452;2023-02-28T08:34:15;19.35;;;10.38;;
66353;SDS011;53150;48.296;16.452;2023-02-28T08:36:41;16.92;;;10.15;;
66353;SDS011;53150;48.296;16.452;2023-02-28T08:39:09;19.67;;;10.82;;
66353;SDS011;53150;48.296;16.452;2023-02-28T08:41:35;18.63;;;11.23;;
66353;SDS011;53150;48.296;16.452;2023-02-28T08:44:01;19.90;;;10.30;;
66353;SDS011;53150;48.296;16.452;2023-02-28T08:46:27;15.13;;;8.38;;
66353;SDS011;53150;48.296;16.452;2023-02-28T08:48:54;18.67;;;10.48;;
66353;SDS011;53150;48.296;16.452;2023-02-28T08:51:21;19.73;;;11.70;;
66353;SDS011;53150;48.296;16.452;2023-02-28T08:53:51;18.70;;;11.27;;
66353;SDS011;53150;48.296;16.452;2023-02-28T08:56:18;17.52;;;11.02;;
66353;SDS011;53150;48.296;16.452;2023-02-28T08:58:44;22.55;;;11.60;;
66353;SDS011;53150;48.296;16.452;2023-02-28T09:01:14;18.83;;;10.65;;
66353;SDS011;53150;48.296;16.452;2023-02-28T09:03:41;17.77;;;10.45;;
66353;SDS011;53150;48.296;16.452;2023-02-28T09:06:07;20.35;;;12.13;;
66353;SDS011;53150;48.296;16.452;2023-02-28T09:08:34;19.83;;;11.55;;
66353;SDS011;53150;48.296;16.452;2023-02-28T09:11:00;18.00;;;11.52;;
66353;SDS011;53150;48.296;16.452;2023-02-28T09:13:27;19.63;;;12.65;;
66353;SDS011;53150;48.296;16.452;2023-02-28T09:15:53;23.40;;;12.80;;
66353;SDS011;53150;48.296;16.452;2023-02-28T09:18:20;20.60;;;11.77;;
66353;SDS011;53150;48.296;16.452;2023-02-28T09:20:46;22.20;;;13.45;;
66353;SDS011;53150;48.296;16.452;2023-02-28T09:23:12;21.05;;;11.68;;
66353;SDS011;53150;48.296;16.452;2023-02-28T09:25:44;21.63;;;11.38;;
66353;SDS011;53150;48.296;16.452;2023-02-28T09:28:10;22.38;;;11.93;;
66353;SDS011;53150;48.296;16.452;2023-02-28T09:30:37;16.77;;;11.13;;
66353;SDS011;53150;48.296;16.452;2023-02-28T09:33:03;20.75;;;12.65;;
66353;SDS011;53150;48.296;16.452;2023-02-28T09:35:29;21.92;;;11.60;;
66353;SDS011;53150;48.296;16.452;2023-02-28T09:37:55;18.85;;;11.05;;
66353;SDS011;53150;48.296;16.452;2023-02-28T09:40:23;19.70;;;11.77;;
66353;SDS011;53150;48.296;16.452;2023-02-28T09:42:51;20.35;;;12.48;;
66353;SDS011;53150;48.296;16.452;2023-02-28T09:47:49;18.10;;;11.93;;
66353;SDS011;53150;48.296;16.452;2023-02-28T09:52:46;17.45;;;11.52;;
66353;SDS011;53150;48.296;16.452;2023-02-28T09:57:41;17.92;;;11.40;;
66353;SDS011;53150;48.296;16.452;2023-02-28T10:10:29;18.33;;;11.02;;
66353;SDS011;53150;48.296;16.452;2023-02-28T10:12:58;18.15;;;10.82;;
66353;SDS011;53150;48.296;16.452;2023-02-28T10:15:26;18.05;;;10.43;;
66353;SDS011;53150;48.296;16.452;2023-02-28T10:17:54;19.90;;;11.63;;
66353;SDS011;53150;48.296;16.452;2023-02-28T10:20:22;19.50;;;11.65;;
66353;SDS011;53150;48.296;16.452;2023-02-28T10:26:11;18.38;;;11.63;;
66353;SDS011;53150;48.296;16.452;2023-02-28T10:28:38;22.63;;;11.45;;
66353;SDS011;53150;48.296;16.452;2023-02-28T10:31:04;20.00;;;12.80;;
66353;SDS011;53150;48.296;16.452;2023-02-28T10:33:33;19.90;;;11.73;;
66353;SDS011;53150;48.296;16.452;2023-02-28T10:36:00;21.63;;;12.35;;
66353;SDS011;53150;48.296;16.452;2023-02-28T10:38:28;20.23;;;11.95;;
66353;SDS011;53150;48.296;16.452;2023-02-28T10:41:03;18.90;;;11.38;;
66353;SDS011;53150;48.296;16.452;2023-02-28T10:43:29;18.98;;;11.20;;
66353;SDS011;53150;48.296;16.452;2023-02-28T10:46:00;17.45;;;11.30;;
66353;SDS011;53150;48.296;16.452;2023-02-28T10:53:57;17.33;;;10.07;;
66353;SDS011;53150;48.296;16.452;2023-02-28T10:56:24;19.00;;;10.98;;
66353;SDS011;53150;48.296;16.452;2023-02-28T10:59:01;33.88;;;25.63;;
66353;SDS011;53150;48.296;16.452;2023-02-28T11:03:56;18.23;;;10.98;;
66353;SDS011;53150;48.296;16.452;2023-02-28T11:06:23;20.38;;;11.15;;
66353;SDS011;53150;48.296;16.452;2023-02-28T11:09:02;20.02;;;11.32;;
66353;SDS011;53150;48.296;16.452;2023-02-28T11:11:29;18.10;;;10.82;;
66353;SDS011;53150;48.296;16.452;2023-02-28T11:13:57;17.52;;;10.63;;
66353;SDS011;53150;48.296;16.452;2023-02-28T11:16:31;16.92;;;9.90;;
66353;SDS011;53150;48.296;16.452;2023-02-28T11:18:58;16.67;;;9.63;;
66353;SDS011;53150;48.296;16.452;2023-02-28T11:21:31;18.35;;;9.57;;
66353;SDS011;53150;48.296;16.452;2023-02-28T11:24:16;17.75;;;10.00;;
66353;SDS011;53150;48.296;16.452;2023-02-28T11:26:46;15.82;;;10.07;;
66353;SDS011;53150;48.296;16.452;2023-02-28T11:29:29;17.92;;;9.30;;
66353;SDS011;53150;48.296;16.452;2023-02-28T11:34:34;17.80;;;9.70;;
66353;SDS011;53150;48.296;16.452;2023-02-28T11:37:01;16.52;;;9.93;;
66353;SDS011;53150;48.296;16.452;2023-02-28T11:39:30;18.08;;;11.27;;
66353;SDS011;53150;48.296;16.452;2023-02-28T11:42:00;16.20;;;9.85;;
66353;SDS011;53150;48.296;16.452;2023-02-28T11:44:38;16.48;;;9.80;;
66353;SDS011;53150;48.296;16.452;2023-02-28T11:49:45;18.38;;;10.45;;
66353;SDS011;53150;48.296;16.452;2023-02-28T11:59:38;13.73;;;9.20;;
66353;SDS011;53150;48.296;16.452;2023-02-28T12:02:26;16.20;;;9.73;;
66353;SDS011;53150;48.296;16.452;2023-02-28T12:22:55;17.75;;;9.57;;
66353;SDS011;53150;48.296;16.452;2023-02-28T12:25:37;16.50;;;10.10;;
66353;SDS011;53150;48.296;16.452;2023-02-28T12:28:07;19.30;;;10.52;;
66353;SDS011;53150;48.296;16.452;2023-02-28T12:30:35;17.42;;;9.20;;
66353;SDS011;53150;48.296;16.452;2023-02-28T12:35:36;17.30;;;10.45;;
66353;SDS011;53150;48.296;16.452;2023-02-28T12:38:12;18.42;;;10.10;;
66353;SDS011;53150;48.296;16.452;2023-02-28T12:40:44;17.38;;;10.43;;
66353;SDS011;53150;48.296;16.452;2023-02-28T12:43:11;21.35;;;10.05;;
66353;SDS011;53150;48.296;16.452;2023-02-28T12:45:43;17.38;;;10.07;;
66353;SDS011;53150;48.296;16.452;2023-02-28T12:48:14;16.77;;;9.77;;
66353;SDS011;53150;48.296;16.452;2023-02-28T12:50:40;16.10;;;9.32;;
66353;SDS011;53150;48.296;16.452;2023-02-28T12:53:13;16.30;;;9.70;;
66353;SDS011;53150;48.296;16.452;2023-02-28T12:55:54;16.60;;;9.73;;
66353;SDS011;53150;48.296;16.452;2023-02-28T13:06:06;17.05;;;9.90;;
66353;SDS011;53150;48.296;16.452;2023-02-28T13:11:24;16.08;;;9.70;;
66353;SDS011;53150;48.296;16.452;2023-02-28T13:14:01;17.58;;;11.25;;
66353;SDS011;53150;48.296;16.452;2023-02-28T13:16:27;15.68;;;10.02;;
66353;SDS011;53150;48.296;16.452;2023-02-28T13:19:07;16.15;;;9.80;;
66353;SDS011;53150;48.296;16.452;2023-02-28T13:21:41;16.00;;;10.55;;
66353;SDS011;53150;48.296;16.452;2023-02-28T13:24:08;15.63;;;10.45;;
66353;SDS011;53150;48.296;16.452;2023-02-28T13:34:26;16.67;;;9.65;;
66353;SDS011;53150;48.296;16.452;2023-02-28T13:36:54;15.40;;;9.23;;
66353;SDS011;53150;48.296;16.452;2023-02-28T13:47:43;15.57;;;9.77;;
66353;SDS011;53150;48.296;16.452;2023-02-28T14:08:47;13.25;;;8.82;;
66353;SDS011;53150;48.296;16.452;2023-02-28T14:16:56;15.63;;;10.05;;
66353;SDS011;53150;48.296;16.452;2023-02-28T14:19:27;15.43;;;10.38;;
66353;SDS011;53150;48.296;16.452;2023-02-28T14:34:59;16.73;;;10.52;;
66353;SDS011;53150;48.296;16.452;2023-02-28T14:37:30;13.65;;;9.48;;
66353;SDS011;53150;48.296;16.452;2023-02-28T14:39:57;14.63;;;9.95;;
66353;SDS011;53150;48.296;16.452;2023-02-28T14:44:53;17.48;;;10.50;;
66353;SDS011;53150;48.296;16.452;2023-02-28T14:47:21;16.55;;;9.90;;
66353;SDS011;53150;48.296;16.452;2023-02-28T14:49:49;15.35;;;10.52;;
66353;SDS011;53150;48.296;16.452;2023-02-28T14:52:17;21.15;;;10.93;;
66353;SDS011;53150;48.296;16.452;2023-02-28T14:54:44;19.33;;;10.55;;
66353;SDS011;53150;48.296;16.452;2023-02-28T15:02:29;15.73;;;9.30;;
66353;SDS011;53150;48.296;16.452;2023-02-28T15:05:00;18.15;;;11.13;;
66353;SDS011;53150;48.296;16.452;2023-02-28T15:07:26;16.15;;;9.55;;
66353;SDS011;53150;48.296;16.452;2023-02-28T15:10:13;16.10;;;9.90;;
66353;SDS011;53150;48.296;16.452;2023-02-28T15:12:40;15.45;;;9.35;;
66353;SDS011;53150;48.296;16.452;2023-02-28T15:15:14;15.48;;;9.52;;
66353;SDS011;53150;48.296;16.452;2023-02-28T15:17:40;18.67;;;9.57;;
66353;SDS011;53150;48.296;16.452;2023-02-28T15:20:10;17.35;;;9.82;;
66353;SDS011;53150;48.296;16.452;2023-02-28T15:22:37;14.57;;;8.98;;
66353;SDS011;53150;48.296;16.452;2023-02-28T15:25:04;16.67;;;9.73;;
66353;SDS011;53150;48.296;16.452;2023-02-28T15:27:33;16.13;;;9.25;;
66353;SDS011;53150;48.296;16.452;2023-02-28T15:30:00;15.57;;;9.50;;
66353;SDS011;53150;48.296;16.452;2023-02-28T15:34:56;17.35;;;10.13;;
66353;SDS011;53150;48.296;16.452;2023-02-28T15:42:22;17.85;;;10.02;;
66353;SDS011;53150;48.296;16.452;2023-02-28T15:44:49;18.90;;;10.02;;
66353;SDS011;53150;48.296;16.452;2023-02-28T15:49:54;15.50;;;10.15;;
66353;SDS011;53150;48.296;16.452;2023-02-28T15:52:26;15.05;;;9.70;;
66353;SDS011;53150;48.296;16.452;2023-02-28T15:54:53;14.65;;;9.38;;
66353;SDS011;53150;48.296;16.452;2023-02-28T15:57:23;16.77;;;9.88;;
66353;SDS011;53150;48.296;16.452;2023-02-28T15:59:56;14.17;;;8.70;;
66353;SDS011;53150;48.296;16.452;2023-02-28T16:02:30;15.82;;;9.55;;
66353;SDS011;53150;48.296;16.452;2023-02-28T16:05:01;18.67;;;9.88;;
66353;SDS011;53150;48.296;16.452;2023-02-28T16:07:27;20.20;;;14.02;;
66353;SDS011;53150;48.296;16.452;2023-02-28T16:09:53;20.77;;;10.18;;
66353;SDS011;53150;48.296;16.452;2023-02-28T16:12:20;22.85;;;12.80;;
66353;SDS011;53150;48.296;16.452;2023-02-28T16:14:47;22.63;;;12.18;;
66353;SDS011;53150;48.296;16.452;2023-02-28T16:17:20;19.92;;;10.98;;
66353;SDS011;53150;48.296;16.452;2023-02-28T16:19:46;24.20;;;13.32;;
66353;SDS011;53150;48.296;16.452;2023-02-28T16:22:12;19.08;;;11.88;;
66353;SDS011;53150;48.296;16.452;2023-02-28T16:24:38;17.60;;;11.70;;
66353;SDS011;53150;48.296;16.452;2023-02-28T16:27:05;16.17;;;9.60;;
66353;SDS011;53150;48.296;16.452;2023-02-28T16:29:33;15.40;;;9.10;;
66353;SDS011;53150;48.296;16.452;2023-02-28T16:32:00;17.50;;;9.75;;
66353;SDS011;53150;48.296;16.452;2023-02-28T16:34:27;13.98;;;8.13;;
66353;SDS011;53150;48.296;16.452;2023-02-28T16:36:53;13.70;;;7.60;;
66353;SDS011;53150;48.296;16.452;2023-02-28T16:39:20;13.90;;;8.75;;
66353;SDS011;53150;48.296;16.452;2023-02-28T16:41:46;12.57;;;7.80;;
66353;SDS011;53150;48.296;16.452;2023-02-28T16:44:14;11.18;;;6.85;;
66353;SDS011;53150;48.296;16.452;2023-02-28T16:46:43;14.50;;;8.45;;
66353;SDS011;53150;48.296;16.452;2023-02-28T16:49:10;14.20;;;8.45;;
66353;SDS011;53150;48.296;16.452;2023-02-28T16:51:37;15.07;;;8.85;;
66353;SDS011;53150;48.296;16.452;2023-02-28T16:54:04;18.20;;;9.30;;
66353;SDS011;53150;48.296;16.452;2023-02-28T16:56:30;14.93;;;9.00;;
66353;SDS011;53150;48.296;16.452;2023-02-28T16:58:58;16.27;;;9.73;;
66353;SDS011;53150;48.296;16.452;2023-02-28T17:01:25;15.75;;;9.38;;
66353;SDS011;53150;48.296;16.452;2023-02-28T17:03:52;14.52;;;9.05;;
66353;SDS011;53150;48.296;16.452;2023-02-28T17:08:44;16.38;;;8.07;;
66353;SDS011;53150;48.296;16.452;2023-02-28T17:11:11;15.35;;;8.95;;
66353;SDS011;53150;48.296;16.452;2023-02-28T17:13:37;15.75;;;9.35;;
66353;SDS011;53150;48.296;16.452;2023-02-28T17:16:03;13.75;;;8.00;;
66353;SDS011;53150;48.296;16.452;2023-02-28T17:18:29;11.73;;;8.35;;
66353;SDS011;53150;48.296;16.452;2023-02-28T17:20:58;12.88;;;7.97;;
66353;SDS011;53150;48.296;16.452;2023-02-28T17:23:24;13.07;;;7.25;;
66353;SDS011;53150;48.296;16.452;2023-02-28T17:25:50;15.20;;;7.85;;
66353;SDS011;53150;48.296;16.452;2023-02-28T17:28:20;13.52;;;7.55;;
66353;SDS011;53150;48.296;16.452;2023-02-28T17:30:47;14.30;;;7.10;;
66353;SDS011;53150;48.296;16.452;2023-02-28T17:33:13;12.63;;;7.90;;
66353;SDS011;53150;48.296;16.452;2023-02-28T17:35:40;16.00;;;9.23;;